sensor_id;sensor_type;location;lat;lon;timestamp;temperature;humidity
24560;DHT22;12727;49.934;8.656;2023-11-18T00:00:18;3.50;99.90
24560;DHT22;12727;49.934;8.656;2023-11-18T00:02:44;3.40;99.90
24560;DHT22;12727;49.934;8.656;2023-11-18T00:05:10;3.50;99.90
24560;DHT22;12727;49.934;8.656;2023-11-18T00:07:36;3.70;99.90
24560;DHT22;12727;49.934;8.656;2023-11-18T00:10:02;4.00;99.90
24560;DHT22;12727;49.934;8.656;2023-11-18T00:12:29;4.20;99.90
24560;DHT22;12727;49.934;8.656;2023-11-18T00:14:54;4.40;99.90
24560;DHT22;12727;49.934;8.656;2023-11-18T00:17:20;4.20;99.90
24560;DHT22;12727;49.934;8.656;2023-11-18T00:19:46;4.00;99.90
24560;DHT22;12727;49.934;8.656;2023-11-18T00:22:11;3.60;99.90
24560;DHT22;12727;49.934;8.656;2023-11-18T00:24:37;3.30;99.90
24560;DHT22;12727;49.934;8.656;2023-11-18T00:27:04;3.10;99.90
24560;DHT22;12727;49.934;8.656;2023-11-18T00:29:35;3.10;99.90
24560;DHT22;12727;49.934;8.656;2023-11-18T00:32:01;3.30;99.90
24560;DHT22;12727;49.934;8.656;2023-11-18T00:34:27;3.40;99.90
24560;DHT22;12727;49.934;8.656;2023-11-18T00:36:55;3.80;99.90
24560;DHT22;12727;49.934;8.656;2023-11-18T00:39:23;4.00;99.90
24560;DHT22;12727;49.934;8.656;2023-11-18T00:41:48;4.00;99.90
24560;DHT22;12727;49.934;8.656;2023-11-18T00:44:14;3.60;99.90
24560;DHT22;12727;49.934;8.656;2023-11-18T00:46:40;3.20;99.90
24560;DHT22;12727;49.934;8.656;2023-11-18T00:49:05;3.00;99.90
24560;DHT22;12727;49.934;8.656;2023-11-18T00:51:31;2.90;99.90
24560;DHT22;12727;49.934;8.656;2023-11-18T00:53:57;2.80;99.90
24560;DHT22;12727;49.934;8.656;2023-11-18T00:56:23;2.80;99.90
24560;DHT22;12727;49.934;8.656;2023-11-18T00:58:49;2.70;99.90
24560;DHT22;12727;49.934;8.656;2023-11-18T01:01:14;2.70;99.90
24560;DHT22;12727;49.934;8.656;2023-11-18T01:03:45;2.70;99.90
24560;DHT22;12727;49.934;8.656;2023-11-18T01:06:12;3.30;99.90
24560;DHT22;12727;49.934;8.656;2023-11-18T01:08:37;3.50;99.90
24560;DHT22;12727;49.934;8.656;2023-11-18T01:11:04;3.80;99.90
24560;DHT22;12727;49.934;8.656;2023-11-18T01:13:30;4.00;99.90
24560;DHT22;12727;49.934;8.656;2023-11-18T01:15:56;3.70;99.90
24560;DHT22;12727;49.934;8.656;2023-11-18T01:18:22;3.30;99.90
24560;DHT22;12727;49.934;8.656;2023-11-18T01:20:48;3.00;99.90
24560;DHT22;12727;49.934;8.656;2023-11-18T01:23:14;3.00;99.90
24560;DHT22;12727;49.934;8.656;2023-11-18T01:25:40;2.80;99.90
24560;DHT22;12727;49.934;8.656;2023-11-18T01:28:06;2.80;99.90
24560;DHT22;12727;49.934;8.656;2023-11-18T01:30:31;2.70;99.90
24560;DHT22;12727;49.934;8.656;2023-11-18T01:32:58;2.80;99.90
24560;DHT22;12727;49.934;8.656;2023-11-18T01:35:28;2.80;99.90
24560;DHT22;12727;49.934;8.656;2023-11-18T01:37:54;2.80;99.90
24560;DHT22;12727;49.934;8.656;2023-11-18T01:40:20;2.80;99.90
24560;DHT22;12727;49.934;8.656;2023-11-18T01:42:46;2.70;99.90
24560;DHT22;12727;49.934;8.656;2023-11-18T01:45:15;2.70;99.90
24560;DHT22;12727;49.934;8.656;2023-11-18T01:47:43;2.50;99.90
24560;DHT22;12727;49.934;8.656;2023-11-18T01:50:11;2.40;99.90
24560;DHT22;12727;49.934;8.656;2023-11-18T01:52:38;2.30;99.90
24560;DHT22;12727;49.934;8.656;2023-11-18T01:55:05;2.20;99.90
24560;DHT22;12727;49.934;8.656;2023-11-18T01:57:33;2.30;99.90
24560;DHT22;12727;49.934;8.656;2023-11-18T01:59:59;2.40;99.90
24560;DHT22;12727;49.934;8.656;2023-11-18T02:02:25;2.40;99.90
24560;DHT22;12727;49.934;8.656;2023-11-18T02:04:51;2.40;99.90
24560;DHT22;12727;49.934;8.656;2023-11-18T02:07:17;2.50;99.90
24560;DHT22;12727;49.934;8.656;2023-11-18T02:09:43;2.60;99.90
24560;DHT22;12727;49.934;8.656;2023-11-18T02:12:21;2.50;99.90
24560;DHT22;12727;49.934;8.656;2023-11-18T02:14:49;2.50;99.90
24560;DHT22;12727;49.934;8.656;2023-11-18T02:17:19;2.60;99.90
24560;DHT22;12727;49.934;8.656;2023-11-18T02:19:46;2.60;99.90
24560;DHT22;12727;49.934;8.656;2023-11-18T02:22:12;2.60;99.90
24560;DHT22;12727;49.934;8.656;2023-11-18T02:24:38;2.50;99.90
24560;DHT22;12727;49.934;8.656;2023-11-18T02:27:06;2.50;99.90
24560;DHT22;12727;49.934;8.656;2023-11-18T02:29:43;2.80;99.90
24560;DHT22;12727;49.934;8.656;2023-11-18T02:35:29;3.00;99.90
24560;DHT22;12727;49.934;8.656;2023-11-18T02:37:56;3.00;99.90
24560;DHT22;12727;49.934;8.656;2023-11-18T02:40:29;2.80;99.90
24560;DHT22;12727;49.934;8.656;2023-11-18T02:42:57;2.70;99.90
24560;DHT22;12727;49.934;8.656;2023-11-18T02:45:24;2.60;99.90
24560;DHT22;12727;49.934;8.656;2023-11-18T02:47:50;2.60;99.90
24560;DHT22;12727;49.934;8.656;2023-11-18T02:50:17;2.60;99.90
24560;DHT22;12727;49.934;8.656;2023-11-18T02:52:44;2.50;99.90
24560;DHT22;12727;49.934;8.656;2023-11-18T02:55:10;2.50;99.90
24560;DHT22;12727;49.934;8.656;2023-11-18T02:57:37;2.40;99.90
24560;DHT22;12727;49.934;8.656;2023-11-18T03:00:06;2.50;99.90
24560;DHT22;12727;49.934;8.656;2023-11-18T03:02:42;2.40;99.90
24560;DHT22;12727;49.934;8.656;2023-11-18T03:05:08;2.40;99.90
24560;DHT22;12727;49.934;8.656;2023-11-18T03:07:37;2.30;99.90
24560;DHT22;12727;49.934;8.656;2023-11-18T03:10:03;2.30;99.90
24560;DHT22;12727;49.934;8.656;2023-11-18T03:12:35;2.30;99.90
24560;DHT22;12727;49.934;8.656;2023-11-18T03:15:00;2.30;99.90
24560;DHT22;12727;49.934;8.656;2023-11-18T03:17:26;2.40;99.90
24560;DHT22;12727;49.934;8.656;2023-11-18T03:19:52;2.40;99.90
24560;DHT22;12727;49.934;8.656;2023-11-18T03:22:18;2.40;99.90
24560;DHT22;12727;49.934;8.656;2023-11-18T03:24:44;2.40;99.90
24560;DHT22;12727;49.934;8.656;2023-11-18T03:27:09;2.50;99.90
24560;DHT22;12727;49.934;8.656;2023-11-18T03:29:35;2.50;99.90
24560;DHT22;12727;49.934;8.656;2023-11-18T03:32:01;2.50;99.90
24560;DHT22;12727;49.934;8.656;2023-11-18T03:34:27;2.50;99.90
24560;DHT22;12727;49.934;8.656;2023-11-18T03:36:52;2.40;99.90
24560;DHT22;12727;49.934;8.656;2023-11-18T03:39:18;2.40;99.90
24560;DHT22;12727;49.934;8.656;2023-11-18T03:41:43;2.50;99.90
24560;DHT22;12727;49.934;8.656;2023-11-18T03:44:11;2.70;99.90
24560;DHT22;12727;49.934;8.656;2023-11-18T03:46:37;3.20;99.90
24560;DHT22;12727;49.934;8.656;2023-11-18T03:49:03;3.60;99.90
24560;DHT22;12727;49.934;8.656;2023-11-18T03:51:28;4.00;99.90
24560;DHT22;12727;49.934;8.656;2023-11-18T03:53:54;3.90;99.90
24560;DHT22;12727;49.934;8.656;2023-11-18T03:56:19;3.50;99.90
24560;DHT22;12727;49.934;8.656;2023-11-18T03:58:45;3.30;99.90
24560;DHT22;12727;49.934;8.656;2023-11-18T04:01:24;3.20;99.90
24560;DHT22;12727;49.934;8.656;2023-11-18T04:03:52;3.20;99.90
24560;DHT22;12727;49.934;8.656;2023-11-18T04:06:18;3.50;99.90
24560;DHT22;12727;49.934;8.656;2023-11-18T04:08:47;3.70;99.90
24560;DHT22;12727;49.934;8.656;2023-11-18T04:11:14;3.80;99.90
24560;DHT22;12727;49.934;8.656;2023-11-18T04:13:40;4.00;99.90
24560;DHT22;12727;49.934;8.656;2023-11-18T04:16:13;4.00;99.90
24560;DHT22;12727;49.934;8.656;2023-11-18T04:18:39;3.80;99.90
24560;DHT22;12727;49.934;8.656;2023-11-18T04:21:08;3.50;99.90
24560;DHT22;12727;49.934;8.656;2023-11-18T04:23:37;3.40;99.90
24560;DHT22;12727;49.934;8.656;2023-11-18T04:26:04;3.30;99.90
24560;DHT22;12727;49.934;8.656;2023-11-18T04:28:30;3.30;99.90
24560;DHT22;12727;49.934;8.656;2023-11-18T04:30:56;3.20;99.90
24560;DHT22;12727;49.934;8.656;2023-11-18T04:33:21;3.20;99.90
24560;DHT22;12727;49.934;8.656;2023-11-18T04:35:47;3.20;99.90
24560;DHT22;12727;49.934;8.656;2023-11-18T04:38:13;3.20;99.90
24560;DHT22;12727;49.934;8.656;2023-11-18T04:40:38;3.20;99.90
24560;DHT22;12727;49.934;8.656;2023-11-18T04:43:06;3.20;99.90
24560;DHT22;12727;49.934;8.656;2023-11-18T04:45:32;3.20;99.90
24560;DHT22;12727;49.934;8.656;2023-11-18T04:47:57;3.20;99.90
24560;DHT22;12727;49.934;8.656;2023-11-18T04:50:24;3.20;99.90
24560;DHT22;12727;49.934;8.656;2023-11-18T04:52:50;3.20;99.90
24560;DHT22;12727;49.934;8.656;2023-11-18T04:55:16;3.20;99.90
24560;DHT22;12727;49.934;8.656;2023-11-18T04:57:41;3.30;99.90
24560;DHT22;12727;49.934;8.656;2023-11-18T05:00:07;3.30;99.90
24560;DHT22;12727;49.934;8.656;2023-11-18T05:02:39;3.30;99.90
24560;DHT22;12727;49.934;8.656;2023-11-18T05:05:06;3.30;99.90
24560;DHT22;12727;49.934;8.656;2023-11-18T05:07:32;3.30;99.90
24560;DHT22;12727;49.934;8.656;2023-11-18T05:09:58;3.30;99.90
24560;DHT22;12727;49.934;8.656;2023-11-18T05:12:23;3.30;99.90
24560;DHT22;12727;49.934;8.656;2023-11-18T05:14:49;3.30;99.90
24560;DHT22;12727;49.934;8.656;2023-11-18T05:17:15;3.20;99.90
24560;DHT22;12727;49.934;8.656;2023-11-18T05:19:41;3.20;99.90
24560;DHT22;12727;49.934;8.656;2023-11-18T05:22:08;3.20;99.90
24560;DHT22;12727;49.934;8.656;2023-11-18T05:24:33;3.20;99.90
24560;DHT22;12727;49.934;8.656;2023-11-18T05:26:59;3.20;99.90
24560;DHT22;12727;49.934;8.656;2023-11-18T05:29:28;3.20;99.90
24560;DHT22;12727;49.934;8.656;2023-11-18T05:31:54;3.20;99.90
24560;DHT22;12727;49.934;8.656;2023-11-18T05:34:22;3.20;99.90
24560;DHT22;12727;49.934;8.656;2023-11-18T05:36:48;3.20;99.90
24560;DHT22;12727;49.934;8.656;2023-11-18T05:39:16;3.20;99.90
24560;DHT22;12727;49.934;8.656;2023-11-18T05:41:42;3.20;99.90
24560;DHT22;12727;49.934;8.656;2023-11-18T05:44:11;3.20;99.90
24560;DHT22;12727;49.934;8.656;2023-11-18T05:46:43;3.20;99.90
24560;DHT22;12727;49.934;8.656;2023-11-18T05:49:11;3.10;99.90
24560;DHT22;12727;49.934;8.656;2023-11-18T05:51:39;3.00;99.90
24560;DHT22;12727;49.934;8.656;2023-11-18T05:54:06;3.00;99.90
24560;DHT22;12727;49.934;8.656;2023-11-18T05:56:32;3.00;99.90
24560;DHT22;12727;49.934;8.656;2023-11-18T05:58:58;3.00;99.90
24560;DHT22;12727;49.934;8.656;2023-11-18T06:01:24;3.10;99.90
24560;DHT22;12727;49.934;8.656;2023-11-18T06:03:53;3.00;99.90
24560;DHT22;12727;49.934;8.656;2023-11-18T06:06:18;3.10;99.90
24560;DHT22;12727;49.934;8.656;2023-11-18T06:08:46;3.00;99.90
24560;DHT22;12727;49.934;8.656;2023-11-18T06:11:13;3.00;99.90
24560;DHT22;12727;49.934;8.656;2023-11-18T06:13:40;3.00;99.90
24560;DHT22;12727;49.934;8.656;2023-11-18T06:16:09;3.00;99.90
24560;DHT22;12727;49.934;8.656;2023-11-18T06:18:35;3.00;99.90
24560;DHT22;12727;49.934;8.656;2023-11-18T06:21:01;3.00;99.90
24560;DHT22;12727;49.934;8.656;2023-11-18T06:23:27;2.90;99.90
24560;DHT22;12727;49.934;8.656;2023-11-18T06:25:52;3.00;99.90
24560;DHT22;12727;49.934;8.656;2023-11-18T06:28:18;3.00;99.90
24560;DHT22;12727;49.934;8.656;2023-11-18T06:30:44;3.00;99.90
24560;DHT22;12727;49.934;8.656;2023-11-18T06:33:09;3.00;99.90
24560;DHT22;12727;49.934;8.656;2023-11-18T06:35:37;3.10;99.90
24560;DHT22;12727;49.934;8.656;2023-11-18T06:38:02;3.10;99.90
24560;DHT22;12727;49.934;8.656;2023-11-18T06:40:28;3.10;99.90
24560;DHT22;12727;49.934;8.656;2023-11-18T06:42:53;3.10;99.90
24560;DHT22;12727;49.934;8.656;2023-11-18T06:45:26;3.10;99.90
24560;DHT22;12727;49.934;8.656;2023-11-18T06:47:52;3.10;99.90
24560;DHT22;12727;49.934;8.656;2023-11-18T06:50:18;3.10;99.90
24560;DHT22;12727;49.934;8.656;2023-11-18T06:52:49;3.20;99.90
24560;DHT22;12727;49.934;8.656;2023-11-18T06:55:16;3.20;99.90
24560;DHT22;12727;49.934;8.656;2023-11-18T06:57:42;3.30;99.90
24560;DHT22;12727;49.934;8.656;2023-11-18T07:00:10;3.30;99.90
24560;DHT22;12727;49.934;8.656;2023-11-18T07:02:39;3.40;99.90
24560;DHT22;12727;49.934;8.656;2023-11-18T07:05:05;3.40;99.90
24560;DHT22;12727;49.934;8.656;2023-11-18T07:07:31;3.50;99.90
24560;DHT22;12727;49.934;8.656;2023-11-18T07:09:57;3.50;99.90
24560;DHT22;12727;49.934;8.656;2023-11-18T07:12:23;3.60;99.90
24560;DHT22;12727;49.934;8.656;2023-11-18T07:14:48;3.60;99.90
24560;DHT22;12727;49.934;8.656;2023-11-18T07:17:14;3.60;99.90
24560;DHT22;12727;49.934;8.656;2023-11-18T07:19:40;3.60;99.90
24560;DHT22;12727;49.934;8.656;2023-11-18T07:22:05;3.70;99.90
24560;DHT22;12727;49.934;8.656;2023-11-18T07:24:32;3.70;99.90
24560;DHT22;12727;49.934;8.656;2023-11-18T07:26:58;3.70;99.90
24560;DHT22;12727;49.934;8.656;2023-11-18T07:29:25;3.70;99.90
24560;DHT22;12727;49.934;8.656;2023-11-18T07:31:52;3.80;99.90
24560;DHT22;12727;49.934;8.656;2023-11-18T07:34:20;3.80;99.90
24560;DHT22;12727;49.934;8.656;2023-11-18T07:36:47;3.90;99.90
24560;DHT22;12727;49.934;8.656;2023-11-18T07:39:13;4.00;99.90
24560;DHT22;12727;49.934;8.656;2023-11-18T07:41:41;4.10;99.90
24560;DHT22;12727;49.934;8.656;2023-11-18T07:44:07;4.00;99.90
24560;DHT22;12727;49.934;8.656;2023-11-18T07:46:36;4.20;99.90
24560;DHT22;12727;49.934;8.656;2023-11-18T07:49:03;4.30;99.90
24560;DHT22;12727;49.934;8.656;2023-11-18T07:51:29;4.30;99.90
24560;DHT22;12727;49.934;8.656;2023-11-18T07:53:55;4.40;99.90
24560;DHT22;12727;49.934;8.656;2023-11-18T07:56:20;4.50;99.90
24560;DHT22;12727;49.934;8.656;2023-11-18T07:58:49;4.40;99.90
24560;DHT22;12727;49.934;8.656;2023-11-18T08:01:15;4.40;99.90
24560;DHT22;12727;49.934;8.656;2023-11-18T08:03:44;4.50;99.90
24560;DHT22;12727;49.934;8.656;2023-11-18T08:06:13;4.50;99.90
24560;DHT22;12727;49.934;8.656;2023-11-18T08:08:38;4.50;99.90
24560;DHT22;12727;49.934;8.656;2023-11-18T08:11:11;4.50;99.90
24560;DHT22;12727;49.934;8.656;2023-11-18T08:13:40;4.60;99.90
24560;DHT22;12727;49.934;8.656;2023-11-18T08:16:06;4.60;99.90
24560;DHT22;12727;49.934;8.656;2023-11-18T08:18:34;4.70;99.90
24560;DHT22;12727;49.934;8.656;2023-11-18T08:21:00;4.80;99.90
24560;DHT22;12727;49.934;8.656;2023-11-18T08:23:27;4.70;99.90
24560;DHT22;12727;49.934;8.656;2023-11-18T08:25:57;4.80;99.90
24560;DHT22;12727;49.934;8.656;2023-11-18T08:28:22;4.80;99.90
24560;DHT22;12727;49.934;8.656;2023-11-18T08:30:48;4.70;99.90
24560;DHT22;12727;49.934;8.656;2023-11-18T08:33:14;4.80;99.90
24560;DHT22;12727;49.934;8.656;2023-11-18T08:35:40;4.70;99.90
24560;DHT22;12727;49.934;8.656;2023-11-18T08:38:07;4.70;99.90
24560;DHT22;12727;49.934;8.656;2023-11-18T08:40:33;4.80;99.90
24560;DHT22;12727;49.934;8.656;2023-11-18T08:43:00;4.80;99.90
24560;DHT22;12727;49.934;8.656;2023-11-18T08:45:27;4.90;99.90
24560;DHT22;12727;49.934;8.656;2023-11-18T08:47:55;4.90;99.90
24560;DHT22;12727;49.934;8.656;2023-11-18T08:50:21;4.90;99.90
24560;DHT22;12727;49.934;8.656;2023-11-18T08:52:50;5.00;99.90
24560;DHT22;12727;49.934;8.656;2023-11-18T08:55:18;5.00;99.90
24560;DHT22;12727;49.934;8.656;2023-11-18T08:57:48;5.10;99.90
24560;DHT22;12727;49.934;8.656;2023-11-18T09:00:18;5.20;99.90
24560;DHT22;12727;49.934;8.656;2023-11-18T09:03:02;5.20;99.90
24560;DHT22;12727;49.934;8.656;2023-11-18T09:05:34;5.30;99.90
24560;DHT22;12727;49.934;8.656;2023-11-18T09:08:01;5.30;99.90
24560;DHT22;12727;49.934;8.656;2023-11-18T09:10:28;5.30;99.90
24560;DHT22;12727;49.934;8.656;2023-11-18T09:12:54;5.50;99.90
24560;DHT22;12727;49.934;8.656;2023-11-18T09:15:20;5.50;99.90
24560;DHT22;12727;49.934;8.656;2023-11-18T09:17:51;5.50;99.90
24560;DHT22;12727;49.934;8.656;2023-11-18T09:20:18;5.60;99.90
24560;DHT22;12727;49.934;8.656;2023-11-18T09:22:46;5.70;99.90
24560;DHT22;12727;49.934;8.656;2023-11-18T09:25:11;5.80;99.90
24560;DHT22;12727;49.934;8.656;2023-11-18T09:27:37;5.80;99.90
24560;DHT22;12727;49.934;8.656;2023-11-18T09:30:05;5.90;99.90
24560;DHT22;12727;49.934;8.656;2023-11-18T09:32:42;5.90;99.90
24560;DHT22;12727;49.934;8.656;2023-11-18T09:35:08;5.90;99.90
24560;DHT22;12727;49.934;8.656;2023-11-18T09:37:35;6.00;99.90
24560;DHT22;12727;49.934;8.656;2023-11-18T09:40:02;6.10;99.90
24560;DHT22;12727;49.934;8.656;2023-11-18T09:42:40;6.30;99.90
24560;DHT22;12727;49.934;8.656;2023-11-18T09:45:09;6.20;99.90
24560;DHT22;12727;49.934;8.656;2023-11-18T09:47:45;6.40;99.90
24560;DHT22;12727;49.934;8.656;2023-11-18T09:50:17;6.40;99.90
24560;DHT22;12727;49.934;8.656;2023-11-18T09:52:49;6.50;99.90
24560;DHT22;12727;49.934;8.656;2023-11-18T09:55:27;6.60;99.90
24560;DHT22;12727;49.934;8.656;2023-11-18T09:58:04;6.70;99.90
24560;DHT22;12727;49.934;8.656;2023-11-18T10:00:35;6.80;99.90
24560;DHT22;12727;49.934;8.656;2023-11-18T10:03:07;7.00;99.90
24560;DHT22;12727;49.934;8.656;2023-11-18T10:05:41;6.90;99.90
24560;DHT22;12727;49.934;8.656;2023-11-18T10:08:07;6.80;99.90
24560;DHT22;12727;49.934;8.656;2023-11-18T10:10:33;6.80;99.90
24560;DHT22;12727;49.934;8.656;2023-11-18T10:13:03;6.90;99.90
24560;DHT22;12727;49.934;8.656;2023-11-18T10:15:34;6.90;99.90
24560;DHT22;12727;49.934;8.656;2023-11-18T10:18:00;7.10;99.90
24560;DHT22;12727;49.934;8.656;2023-11-18T10:20:45;7.10;99.90
24560;DHT22;12727;49.934;8.656;2023-11-18T10:23:12;7.20;99.90
24560;DHT22;12727;49.934;8.656;2023-11-18T10:25:48;7.20;99.90
24560;DHT22;12727;49.934;8.656;2023-11-18T10:28:35;7.20;99.90
24560;DHT22;12727;49.934;8.656;2023-11-18T10:31:04;7.30;99.90
24560;DHT22;12727;49.934;8.656;2023-11-18T10:36:01;7.40;99.90
24560;DHT22;12727;49.934;8.656;2023-11-18T10:38:38;7.50;99.90
24560;DHT22;12727;49.934;8.656;2023-11-18T10:41:09;7.60;99.90
24560;DHT22;12727;49.934;8.656;2023-11-18T10:43:35;7.50;99.90
24560;DHT22;12727;49.934;8.656;2023-11-18T10:48:38;7.60;99.90
24560;DHT22;12727;49.934;8.656;2023-11-18T10:51:07;7.60;99.90
24560;DHT22;12727;49.934;8.656;2023-11-18T10:53:32;7.80;99.90
24560;DHT22;12727;49.934;8.656;2023-11-18T10:55:58;7.90;99.90
24560;DHT22;12727;49.934;8.656;2023-11-18T10:58:24;8.00;99.90
24560;DHT22;12727;49.934;8.656;2023-11-18T11:00:51;8.00;99.90
24560;DHT22;12727;49.934;8.656;2023-11-18T11:03:21;8.10;99.90
24560;DHT22;12727;49.934;8.656;2023-11-18T11:05:49;8.10;99.90
24560;DHT22;12727;49.934;8.656;2023-11-18T11:08:15;8.10;99.90
24560;DHT22;12727;49.934;8.656;2023-11-18T11:10:43;8.20;99.90
24560;DHT22;12727;49.934;8.656;2023-11-18T11:13:10;8.10;99.90
24560;DHT22;12727;49.934;8.656;2023-11-18T11:15:41;8.10;99.90
24560;DHT22;12727;49.934;8.656;2023-11-18T11:18:13;8.20;99.90
24560;DHT22;12727;49.934;8.656;2023-11-18T11:20:57;8.10;99.90
24560;DHT22;12727;49.934;8.656;2023-11-18T11:31:35;8.30;99.90
24560;DHT22;12727;49.934;8.656;2023-11-18T11:34:09;8.30;99.90
24560;DHT22;12727;49.934;8.656;2023-11-18T11:36:46;8.30;99.90
24560;DHT22;12727;49.934;8.656;2023-11-18T11:39:14;8.20;99.90
24560;DHT22;12727;49.934;8.656;2023-11-18T11:41:50;8.20;99.90
24560;DHT22;12727;49.934;8.656;2023-11-18T11:44:17;8.20;99.90
24560;DHT22;12727;49.934;8.656;2023-11-18T11:46:48;8.20;99.90
24560;DHT22;12727;49.934;8.656;2023-11-18T11:49:22;8.10;99.90
24560;DHT22;12727;49.934;8.656;2023-11-18T11:52:10;8.00;99.90
24560;DHT22;12727;49.934;8.656;2023-11-18T11:54:51;8.00;99.90
24560;DHT22;12727;49.934;8.656;2023-11-18T11:57:22;8.10;99.90
24560;DHT22;12727;49.934;8.656;2023-11-18T12:02:21;8.10;99.90
24560;DHT22;12727;49.934;8.656;2023-11-18T12:04:50;8.10;99.90
24560;DHT22;12727;49.934;8.656;2023-11-18T12:07:21;8.10;99.90
24560;DHT22;12727;49.934;8.656;2023-11-18T12:09:49;8.00;99.90
24560;DHT22;12727;49.934;8.656;2023-11-18T12:12:20;8.10;99.90
24560;DHT22;12727;49.934;8.656;2023-11-18T12:14:50;8.10;99.90
24560;DHT22;12727;49.934;8.656;2023-11-18T12:17:18;8.20;99.90
24560;DHT22;12727;49.934;8.656;2023-11-18T12:19:47;8.20;99.90
24560;DHT22;12727;49.934;8.656;2023-11-18T12:22:15;8.20;99.90
24560;DHT22;12727;49.934;8.656;2023-11-18T12:24:45;8.20;99.90
24560;DHT22;12727;49.934;8.656;2023-11-18T12:27:12;8.20;99.90
24560;DHT22;12727;49.934;8.656;2023-11-18T12:29:44;8.20;99.90
24560;DHT22;12727;49.934;8.656;2023-11-18T12:32:10;8.30;99.90
24560;DHT22;12727;49.934;8.656;2023-11-18T12:34:53;8.20;99.90
24560;DHT22;12727;49.934;8.656;2023-11-18T12:46:08;8.10;99.90
24560;DHT22;12727;49.934;8.656;2023-11-18T12:48:43;8.10;99.90
24560;DHT22;12727;49.934;8.656;2023-11-18T12:51:10;8.10;99.90
24560;DHT22;12727;49.934;8.656;2023-11-18T12:53:48;8.30;99.90
24560;DHT22;12727;49.934;8.656;2023-11-18T12:56:19;8.30;99.90
24560;DHT22;12727;49.934;8.656;2023-11-18T12:58:46;8.20;99.90
24560;DHT22;12727;49.934;8.656;2023-11-18T13:01:13;8.20;99.90
24560;DHT22;12727;49.934;8.656;2023-11-18T13:03:40;8.10;99.90
24560;DHT22;12727;49.934;8.656;2023-11-18T13:06:10;8.10;99.90
24560;DHT22;12727;49.934;8.656;2023-11-18T13:08:38;8.10;99.90
24560;DHT22;12727;49.934;8.656;2023-11-18T13:11:04;8.00;99.90
24560;DHT22;12727;49.934;8.656;2023-11-18T13:13:34;8.00;99.90
24560;DHT22;12727;49.934;8.656;2023-11-18T13:16:01;8.00;99.90
24560;DHT22;12727;49.934;8.656;2023-11-18T13:18:27;8.00;99.90
24560;DHT22;12727;49.934;8.656;2023-11-18T13:20:57;8.00;99.90
24560;DHT22;12727;49.934;8.656;2023-11-18T13:23:26;8.00;99.90
24560;DHT22;12727;49.934;8.656;2023-11-18T13:25:56;8.00;99.90
24560;DHT22;12727;49.934;8.656;2023-11-18T13:28:26;8.00;99.90
24560;DHT22;12727;49.934;8.656;2023-11-18T13:30:52;8.00;99.90
24560;DHT22;12727;49.934;8.656;2023-11-18T13:33:17;8.00;99.90
24560;DHT22;12727;49.934;8.656;2023-11-18T13:35:43;8.00;99.90
24560;DHT22;12727;49.934;8.656;2023-11-18T13:38:09;8.00;99.90
24560;DHT22;12727;49.934;8.656;2023-11-18T13:40:46;8.00;99.90
24560;DHT22;12727;49.934;8.656;2023-11-18T13:43:15;8.00;99.90
24560;DHT22;12727;49.934;8.656;2023-11-18T13:45:41;8.00;99.90
24560;DHT22;12727;49.934;8.656;2023-11-18T13:48:07;8.00;99.90
24560;DHT22;12727;49.934;8.656;2023-11-18T13:50:34;8.10;99.90
24560;DHT22;12727;49.934;8.656;2023-11-18T13:53:03;8.10;99.90
24560;DHT22;12727;49.934;8.656;2023-11-18T13:55:31;8.10;99.90
24560;DHT22;12727;49.934;8.656;2023-11-18T13:57:58;8.10;99.90
24560;DHT22;12727;49.934;8.656;2023-11-18T14:00:28;8.10;99.90
24560;DHT22;12727;49.934;8.656;2023-11-18T14:02:57;8.10;99.90
24560;DHT22;12727;49.934;8.656;2023-11-18T14:05:23;8.10;99.90
24560;DHT22;12727;49.934;8.656;2023-11-18T14:07:53;8.10;99.90
24560;DHT22;12727;49.934;8.656;2023-11-18T14:10:25;8.10;99.90
24560;DHT22;12727;49.934;8.656;2023-11-18T14:13:04;8.10;99.90
24560;DHT22;12727;49.934;8.656;2023-11-18T14:15:34;8.10;99.90
24560;DHT22;12727;49.934;8.656;2023-11-18T14:18:04;8.10;99.90
24560;DHT22;12727;49.934;8.656;2023-11-18T14:20:30;8.10;99.90
24560;DHT22;12727;49.934;8.656;2023-11-18T14:22:59;8.10;99.90
24560;DHT22;12727;49.934;8.656;2023-11-18T14:25:25;8.10;99.90
24560;DHT22;12727;49.934;8.656;2023-11-18T14:27:50;8.00;99.90
24560;DHT22;12727;49.934;8.656;2023-11-18T14:30:16;8.00;99.90
24560;DHT22;12727;49.934;8.656;2023-11-18T14:32:43;8.00;99.90
24560;DHT22;12727;49.934;8.656;2023-11-18T14:35:09;8.00;99.90
24560;DHT22;12727;49.934;8.656;2023-11-18T14:37:39;7.90;99.90
24560;DHT22;12727;49.934;8.656;2023-11-18T14:40:10;7.90;99.90
24560;DHT22;12727;49.934;8.656;2023-11-18T14:42:38;7.90;99.90
24560;DHT22;12727;49.934;8.656;2023-11-18T14:45:04;7.90;99.90
24560;DHT22;12727;49.934;8.656;2023-11-18T14:47:32;7.90;99.90
24560;DHT22;12727;49.934;8.656;2023-11-18T14:49:57;7.90;99.90
24560;DHT22;12727;49.934;8.656;2023-11-18T14:52:23;7.90;99.90
24560;DHT22;12727;49.934;8.656;2023-11-18T14:54:49;7.90;99.90
24560;DHT22;12727;49.934;8.656;2023-11-18T14:57:14;8.00;99.90
24560;DHT22;12727;49.934;8.656;2023-11-18T14:59:41;8.00;99.90
24560;DHT22;12727;49.934;8.656;2023-11-18T15:02:07;8.00;99.90
24560;DHT22;12727;49.934;8.656;2023-11-18T15:04:34;8.00;99.90
24560;DHT22;12727;49.934;8.656;2023-11-18T15:06:59;8.00;99.90
24560;DHT22;12727;49.934;8.656;2023-11-18T15:09:25;8.00;99.90
24560;DHT22;12727;49.934;8.656;2023-11-18T15:11:50;8.00;99.90
24560;DHT22;12727;49.934;8.656;2023-11-18T15:14:19;8.00;99.90
24560;DHT22;12727;49.934;8.656;2023-11-18T15:16:44;8.00;99.90
24560;DHT22;12727;49.934;8.656;2023-11-18T15:19:12;7.90;99.90
24560;DHT22;12727;49.934;8.656;2023-11-18T15:21:38;7.90;99.90
24560;DHT22;12727;49.934;8.656;2023-11-18T15:24:04;7.90;99.90
24560;DHT22;12727;49.934;8.656;2023-11-18T15:26:29;7.90;99.90
24560;DHT22;12727;49.934;8.656;2023-11-18T15:28:57;7.90;99.90
24560;DHT22;12727;49.934;8.656;2023-11-18T15:31:24;7.90;99.90
24560;DHT22;12727;49.934;8.656;2023-11-18T15:33:50;7.80;99.90
24560;DHT22;12727;49.934;8.656;2023-11-18T15:36:16;7.80;99.90
24560;DHT22;12727;49.934;8.656;2023-11-18T15:38:41;7.80;99.90
24560;DHT22;12727;49.934;8.656;2023-11-18T15:41:07;7.70;99.90
24560;DHT22;12727;49.934;8.656;2023-11-18T15:43:32;7.70;99.90
24560;DHT22;12727;49.934;8.656;2023-11-18T15:45:58;7.70;99.90
24560;DHT22;12727;49.934;8.656;2023-11-18T15:48:24;7.70;99.90
24560;DHT22;12727;49.934;8.656;2023-11-18T15:50:52;7.70;99.90
24560;DHT22;12727;49.934;8.656;2023-11-18T15:53:17;7.70;99.90
24560;DHT22;12727;49.934;8.656;2023-11-18T15:55:45;7.60;99.90
24560;DHT22;12727;49.934;8.656;2023-11-18T15:58:13;7.60;99.90
24560;DHT22;12727;49.934;8.656;2023-11-18T16:00:39;7.60;99.90
24560;DHT22;12727;49.934;8.656;2023-11-18T16:03:05;7.60;99.90
24560;DHT22;12727;49.934;8.656;2023-11-18T16:05:34;7.50;99.90
24560;DHT22;12727;49.934;8.656;2023-11-18T16:08:00;7.50;99.90
24560;DHT22;12727;49.934;8.656;2023-11-18T16:10:29;7.50;99.90
24560;DHT22;12727;49.934;8.656;2023-11-18T16:12:57;7.50;99.90
24560;DHT22;12727;49.934;8.656;2023-11-18T16:15:27;7.50;99.90